Lockhart, Alabama
Current Conditions -  °F | °C
As of 8:58 PM on Friday 19 Dec 2014 (Local Time) from K0J4 Reporting Station
Light Rain Light Rain  
Wind Chill: 47°   Ceiling: 2200
Heat Index: 49°   Visibility: 8mi
Dew Point: 47°   Wind: 5mph
Humidity: 93%   Direction: 10°N
Pressure: 30.17"   Gusts: NA
Location:  31.01°N, 86.35°W
Report Text: K0J4 200258Z AUTO 01004KT 8SM -RA OVC022 09/08 A3017 RMK AO2 SLP215 P0000 60002 T00940083 53006 $
Loading
Personal Weather Stations






























Interactive Weather Map New forecast layout! Learn more

10-Day Weather Forecast

Advertisements
Track Severe Weather on mobile